Time;durP1;ratioP1;P1;durP2;ratioP2;P2;SDS_P1;SDS_P2;PMS_P1;PMS_P2;Temp;Humidity;BMP_temperature;BMP_pressure;BME280_temperature;BME280_humidity;BME280_pressure;Samples;Min_cycle;Max_cycle;Signal;HPM_P1;HPM_P2
2023/03/23 00:01:06;;;;;;;46.60;27.40;;;;;;;4.82;100.00;97608.83;109117;1257;70933;-77
2023/03/23 00:03:32;;;;;;;41.40;25.40;;;;;;;4.84;100.00;97602.83;108899;1256;72568;-77
2023/03/23 00:06:02;;;;;;;47.00;23.60;;;;;;;4.85;100.00;97602.73;108923;1256;59094;-77
2023/03/23 00:08:28;;;;;;;40.50;22.70;;;;;;;4.85;100.00;97604.13;108753;1256;61422;-79
2023/03/23 00:10:58;;;;;;;37.80;22.50;;;;;;;4.88;100.00;97604.88;108923;1255;58986;-78
2023/03/23 00:13:24;;;;;;;36.60;22.00;;;;;;;4.88;100.00;97603.70;108900;1255;70430;-77
2023/03/23 00:15:54;;;;;;;37.10;21.60;;;;;;;4.89;100.00;97606.65;108814;1256;59293;-78
2023/03/23 00:18:23;;;;;;;44.60;22.60;;;;;;;4.88;100.00;97605.58;108833;1256;59379;-78
2023/03/23 00:20:51;;;;;;;45.70;26.10;;;;;;;4.84;100.00;97603.70;108921;1255;59770;-76
2023/03/23 00:23:18;;;;;;;36.20;20.90;;;;;;;4.83;100.00;97605.30;108953;1255;74594;-77
2023/03/23 00:25:49;;;;;;;41.70;22.80;;;;;;;4.83;100.00;97603.41;108924;1255;72379;-79
2023/03/23 00:28:15;;;;;;;47.80;31.20;;;;;;;4.78;100.00;97601.85;108908;1255;71745;-77
2023/03/23 00:30:44;;;;;;;38.20;23.50;;;;;;;4.75;100.00;97601.88;108748;1256;59575;-77
2023/03/23 00:33:16;;;;;;;47.10;32.20;;;;;;;4.72;100.00;97597.29;108988;1255;59180;-78
2023/03/23 00:35:44;;;;;;;46.10;26.30;;;;;;;4.66;100.00;97595.88;108979;1256;74931;-77
2023/03/23 00:38:10;;;;;;;40.00;22.00;;;;;;;4.66;100.00;97593.84;108890;1256;70198;-78
2023/03/23 00:40:37;;;;;;;41.80;22.00;;;;;;;4.65;100.00;97593.95;108948;1255;72836;-78
2023/03/23 00:43:03;;;;;;;28.20;17.60;;;;;;;4.67;100.00;97593.68;109028;1255;58922;-78
2023/03/23 00:45:30;;;;;;;36.10;21.40;;;;;;;4.67;100.00;97590.57;108979;1256;59728;-77
2023/03/23 00:48:01;;;;;;;29.50;19.10;;;;;;;4.69;100.00;97590.52;108773;1257;59030;-77
2023/03/23 00:50:28;;;;;;;31.90;19.90;;;;;;;4.71;100.00;97589.23;109032;1256;70230;-78
2023/03/23 00:52:56;;;;;;;42.60;25.60;;;;;;;4.70;100.00;97584.38;109011;1257;73020;-79
2023/03/23 00:55:24;;;;;;;33.80;20.90;;;;;;;4.68;100.00;97575.88;108970;1255;59741;-79
2023/03/23 00:57:51;;;;;;;38.20;23.10;;;;;;;4.67;100.00;97577.52;108918;1255;60169;-78
2023/03/23 01:00:19;;;;;;;34.60;19.80;;;;;;;4.70;100.00;97579.18;108951;1255;73856;-77
2023/03/23 01:02:46;;;;;;;36.60;21.60;;;;;;;4.71;100.00;97578.08;109042;1256;70669;-77
2023/03/23 01:05:12;;;;;;;38.00;25.10;;;;;;;4.72;100.00;97578.02;109039;1256;72274;-77
2023/03/23 01:07:39;;;;;;;44.00;28.20;;;;;;;4.68;100.00;97575.55;109027;1256;58905;-78
2023/03/23 01:10:06;;;;;;;35.60;22.90;;;;;;;4.65;100.00;97575.96;109147;1255;58913;-77
2023/03/23 01:12:32;;;;;;;29.80;17.20;;;;;;;4.64;100.00;97575.64;109136;1255;74735;-78
2023/03/23 01:14:58;;;;;;;31.40;17.40;;;;;;;4.62;100.00;97573.19;109168;1256;59122;-78
2023/03/23 01:17:25;;;;;;;35.90;19.60;;;;;;;4.61;100.00;97569.40;109104;1255;59029;-78
2023/03/23 01:19:51;;;;;;;33.20;21.30;;;;;;;4.59;100.00;97571.64;109137;1255;58917;-78
2023/03/23 01:22:17;;;;;;;28.60;20.10;;;;;;;4.59;100.00;97571.27;109145;1255;59216;-77
2023/03/23 01:24:44;;;;;;;38.80;25.80;;;;;;;4.55;100.00;97569.09;109150;1255;58843;-77
2023/03/23 01:27:11;;;;;;;37.50;25.00;;;;;;;4.51;100.00;97569.67;109045;1256;58945;-79
2023/03/23 01:29:37;;;;;;;39.40;26.40;;;;;;;4.48;100.00;97569.55;109119;1255;58847;-78
2023/03/23 01:32:04;;;;;;;33.60;22.60;;;;;;;4.44;100.00;97570.57;109124;1255;59177;-77
2023/03/23 01:34:31;;;;;;;33.10;23.50;;;;;;;4.36;100.00;97568.98;109125;1255;58808;-77
2023/03/23 01:36:57;;;;;;;36.90;25.80;;;;;;;4.33;100.00;97568.50;109143;1255;73151;-78
2023/03/23 01:39:23;;;;;;;38.50;26.80;;;;;;;4.29;100.00;97568.14;108994;1255;59073;-78
2023/03/23 01:41:50;;;;;;;27.00;20.00;;;;;;;4.28;100.00;97568.52;108922;1255;59545;-78
2023/03/23 01:44:16;;;;;;;32.60;23.80;;;;;;;4.32;100.00;97568.49;108940;1256;59498;-76
2023/03/23 01:46:43;;;;;;;33.30;18.90;;;;;;;4.37;100.00;97569.84;108946;1255;59038;-78
2023/03/23 01:49:24;;;;;;;28.60;19.40;;;;;;;4.37;100.00;97566.10;108750;1256;148747;-78
2023/03/23 01:51:55;;;;;;;27.30;15.70;;;;;;;4.36;100.00;97566.35;108909;1255;71696;-78
2023/03/23 01:54:23;;;;;;;24.70;13.80;;;;;;;4.36;100.00;97568.38;109137;1255;72578;-78
2023/03/23 01:56:55;;;;;;;24.50;15.20;;;;;;;4.39;100.00;97564.52;108952;1256;59139;-77
2023/03/23 01:59:21;;;;;;;33.90;19.90;;;;;;;4.42;100.00;97564.16;109050;1257;59021;-78
2023/03/23 02:01:48;;;;;;;28.10;19.00;;;;;;;4.41;100.00;97560.08;108950;1255;73781;-77
2023/03/23 02:04:15;;;;;;;29.30;18.60;;;;;;;4.40;100.00;97559.59;108938;1255;59094;-79
2023/03/23 02:06:42;;;;;;;31.60;21.70;;;;;;;4.38;100.00;97560.05;108800;1255;72599;-76
2023/03/23 02:09:08;;;;;;;27.80;19.80;;;;;;;4.37;100.00;97558.69;108904;1259;59350;-78
2023/03/23 02:11:35;;;;;;;31.90;17.50;;;;;;;4.34;100.00;97563.80;108916;1255;59397;-77
2023/03/23 02:14:02;;;;;;;25.80;15.20;;;;;;;4.33;100.00;97563.14;108914;1256;59714;-77
2023/03/23 02:16:35;;;;;;;26.10;18.80;;;;;;;4.28;100.00;97558.31;108922;1255;70961;-78
2023/03/23 02:19:56;;;;;;;31.00;21.40;;;;;;;4.27;100.00;97554.39;109073;1255;71355;-77
2023/03/23 02:23:02;;;;;;;23.10;15.10;;;;;;;4.27;100.00;97552.61;108664;1263;58958;-78
2023/03/23 02:25:52;;;;;;;25.20;15.20;;;;;;;4.29;100.00;97560.10;108981;1256;59064;-77
2023/03/23 02:28:36;;;;;;;25.30;14.40;;;;;;;4.29;100.00;97562.56;109020;1255;74530;-78
2023/03/23 02:31:21;;;;;;;21.40;14.00;;;;;;;4.30;100.00;97559.05;109056;1256;70380;-77
2023/03/23 02:34:08;;;;;;;24.20;13.50;;;;;;;4.34;100.00;97560.79;108920;1256;72333;-79
2023/03/23 02:36:38;;;;;;;20.90;12.60;;;;;;;4.34;100.00;97559.77;109009;1256;58930;-79
2023/03/23 02:39:11;;;;;;;19.70;11.00;;;;;;;4.32;100.00;97555.04;108884;1256;59144;-77
2023/03/23 02:41:43;;;;;;;19.90;12.40;;;;;;;4.32;100.00;97557.55;108913;1256;74650;-76
2023/03/23 02:44:29;;;;;;;19.40;12.10;;;;;;;4.35;100.00;97554.20;109007;1256;70954;-78
2023/03/23 02:46:57;;;;;;;20.40;11.50;;;;;;;4.36;100.00;97556.73;108949;1255;72914;-77
2023/03/23 02:49:24;;;;;;;23.70;16.00;;;;;;;4.38;100.00;97555.33;109024;1256;59219;-77
2023/03/23 02:51:50;;;;;;;23.50;16.00;;;;;;;4.39;100.00;97559.19;109015;1255;61433;-77
2023/03/23 02:54:16;;;;;;;23.90;18.20;;;;;;;4.41;100.00;97558.89;109144;1255;59124;-77
2023/03/23 02:56:43;;;;;;;25.70;16.60;;;;;;;4.42;100.00;97559.06;108991;1255;58919;-77
2023/03/23 02:59:09;;;;;;;22.30;18.00;;;;;;;4.43;100.00;97554.83;109021;1255;59320;-79
2023/03/23 03:01:36;;;;;;;24.40;18.70;;;;;;;4.42;100.00;97550.96;109116;1255;58937;-77
2023/03/23 03:04:08;;;;;;;24.20;17.30;;;;;;;4.39;100.00;97546.73;109152;1255;60187;-79
2023/03/23 03:07:02;;;;;;;22.70;14.80;;;;;;;4.38;100.00;97542.08;109131;1256;73097;-77
2023/03/23 03:09:46;;;;;;;18.60;12.90;;;;;;;4.35;100.00;97541.23;109185;1255;70489;-77
2023/03/23 03:12:19;;;;;;;24.50;16.10;;;;;;;4.28;100.00;97536.80;109161;1255;72496;-77
2023/03/23 03:14:56;;;;;;;23.20;16.90;;;;;;;4.21;100.00;97538.29;109041;1256;58910;-77
2023/03/23 03:17:24;;;;;;;23.70;17.90;;;;;;;4.17;100.00;97535.70;108879;1256;60445;-78
2023/03/23 03:19:54;;;;;;;22.10;15.50;;;;;;;4.17;100.00;97534.69;109047;1256;73995;-78
2023/03/23 03:22:21;;;;;;;20.50;14.20;;;;;;;4.21;100.00;97536.24;108979;1256;70351;-79
2023/03/23 03:24:47;;;;;;;22.10;15.80;;;;;;;4.23;100.00;97536.00;108960;1256;59019;-77
2023/03/23 03:27:17;;;;;;;20.30;16.60;;;;;;;4.28;100.00;97531.54;109036;1255;59093;-79
2023/03/23 03:29:47;;;;;;;26.20;19.00;;;;;;;4.30;100.00;97527.38;109046;1256;60282;-78
2023/03/23 03:32:18;;;;;;;29.40;19.10;;;;;;;4.24;100.00;97522.65;109006;1256;73050;-77
2023/03/23 03:34:44;;;;;;;18.30;11.60;;;;;;;4.24;100.00;97523.08;109035;1256;70227;-78
2023/03/23 03:37:11;;;;;;;19.80;12.50;;;;;;;4.21;100.00;97525.35;109135;1256;59200;-77
2023/03/23 03:39:38;;;;;;;18.40;13.60;;;;;;;4.17;100.00;97523.63;108934;1256;58919;-78
2023/03/23 03:42:05;;;;;;;18.10;10.30;;;;;;;4.19;100.00;97531.27;108770;1256;60316;-76
2023/03/23 03:44:33;;;;;;;17.60;9.10;;;;;;;4.20;100.00;97527.39;109007;1254;73505;-76
2023/03/23 03:46:59;;;;;;;15.00;9.00;;;;;;;4.25;100.00;97532.73;109125;1254;71238;-77
2023/03/23 03:49:26;;;;;;;18.80;13.10;;;;;;;4.30;100.00;97531.36;109113;1254;59493;-77
2023/03/23 03:51:52;;;;;;;20.60;13.30;;;;;;;4.34;100.00;97531.55;109092;1254;59816;-79
2023/03/23 03:54:19;;;;;;;18.80;12.50;;;;;;;4.37;100.00;97532.03;109180;1255;59087;-78
2023/03/23 03:56:46;;;;;;;18.20;11.00;;;;;;;4.39;100.00;97531.89;108958;1255;59129;-76
2023/03/23 03:59:12;;;;;;;22.30;12.90;;;;;;;4.41;100.00;97526.16;108945;1255;71173;-79
2023/03/23 04:01:39;;;;;;;32.60;24.10;;;;;;;4.41;100.00;97528.95;108908;1256;59114;-79
2023/03/23 04:04:06;;;;;;;37.60;24.80;;;;;;;4.37;100.00;97529.45;108918;1255;59118;-78
2023/03/23 04:06:35;;;;;;;34.80;21.80;;;;;;;4.25;100.00;97537.09;108935;1255;59048;-78
2023/03/23 04:09:05;;;;;;;29.70;21.10;;;;;;;4.21;100.00;97537.53;108947;1255;74554;-77
2023/03/23 04:11:32;;;;;;;20.90;12.50;;;;;;;4.20;100.00;97534.73;108987;1255;70946;-78
2023/03/23 04:13:59;;;;;;;24.80;14.90;;;;;;;4.18;100.00;97530.95;109153;1255;71526;-79
2023/03/23 04:16:26;;;;;;;29.30;21.70;;;;;;;4.18;100.00;97533.34;109127;1255;58888;-79
2023/03/23 04:18:52;;;;;;;31.00;21.60;;;;;;;4.20;100.00;97531.41;109005;1256;60198;-79
2023/03/23 04:21:18;;;;;;;24.30;20.50;;;;;;;4.19;100.00;97533.48;109114;1255;59030;-78
2023/03/23 04:23:45;;;;;;;23.20;15.00;;;;;;;4.20;100.00;97533.29;109133;1255;70051;-79
2023/03/23 04:26:12;;;;;;;21.70;13.50;;;;;;;4.19;100.00;97534.77;109146;1255;70373;-77
2023/03/23 04:28:40;;;;;;;19.90;13.50;;;;;;;4.16;100.00;97535.74;109124;1255;59052;-79
2023/03/23 04:31:08;;;;;;;21.00;14.50;;;;;;;4.15;100.00;97532.52;108949;1255;60130;-78
2023/03/23 04:33:36;;;;;;;24.60;19.10;;;;;;;4.14;100.00;97532.83;108992;1255;74950;-78
2023/03/23 04:36:05;;;;;;;31.00;20.00;;;;;;;4.12;100.00;97533.94;109030;1255;70727;-79
2023/03/23 04:38:33;;;;;;;26.00;20.20;;;;;;;4.11;100.00;97532.48;108920;1255;71728;-76
2023/03/23 04:41:01;;;;;;;21.70;14.60;;;;;;;4.10;100.00;97533.05;109004;1255;59120;-79
2023/03/23 04:43:28;;;;;;;26.70;16.50;;;;;;;4.07;100.00;97532.95;108933;1255;59033;-77
2023/03/23 04:45:56;;;;;;;19.80;13.00;;;;;;;4.06;100.00;97526.35;108934;1255;73542;-77
2023/03/23 04:48:26;;;;;;;22.00;12.60;;;;;;;4.04;100.00;97525.46;108938;1255;70216;-79
2023/03/23 04:50:53;;;;;;;24.40;14.10;;;;;;;4.05;100.00;97525.59;108935;1256;72100;-77
2023/03/23 04:53:20;;;;;;;24.30;15.40;;;;;;;4.06;100.00;97529.94;108931;1255;59034;-77
2023/03/23 04:55:47;;;;;;;31.80;18.20;;;;;;;4.10;100.00;97537.60;108954;1255;59270;-77
2023/03/23 04:58:14;;;;;;;28.70;18.00;;;;;;;4.14;100.00;97540.55;108760;1256;74556;-79
2023/03/23 05:00:43;;;;;;;22.20;15.20;;;;;;;4.19;100.00;97534.61;108944;1256;71453;-79
2023/03/23 05:03:11;;;;;;;23.10;16.00;;;;;;;4.25;100.00;97538.31;108833;1256;72059;-79
2023/03/23 05:05:37;;;;;;;23.30;14.40;;;;;;;4.32;100.00;97538.67;108936;1256;59808;-79
2023/03/23 05:08:04;;;;;;;24.70;16.70;;;;;;;4.39;100.00;97540.79;108960;1255;59690;-77
2023/03/23 05:10:30;;;;;;;29.80;19.20;;;;;;;4.40;100.00;97543.42;108938;1255;72410;-77
2023/03/23 05:12:56;;;;;;;26.60;18.70;;;;;;;4.42;100.00;97548.49;108924;1256;59534;-79
2023/03/23 05:15:23;;;;;;;27.40;20.90;;;;;;;4.42;100.00;97546.30;108933;1255;59015;-78
2023/03/23 05:17:51;;;;;;;29.30;21.70;;;;;;;4.50;100.00;97551.52;108935;1255;59027;-77
2023/03/23 05:20:19;;;;;;;36.20;19.50;;;;;;;4.53;100.00;97552.27;108892;1257;60254;-76
2023/03/23 05:22:50;;;;;;;32.20;23.20;;;;;;;4.54;100.00;97555.98;108888;1257;74293;-79
2023/03/23 05:25:20;;;;;;;33.70;20.60;;;;;;;4.60;100.00;97556.30;108893;1257;69807;-79
2023/03/23 05:27:52;;;;;;;30.00;17.50;;;;;;;4.65;100.00;97548.26;108865;1256;72410;-77
2023/03/23 05:30:20;;;;;;;28.90;19.60;;;;;;;4.67;100.00;97547.58;108859;1257;59632;-79
2023/03/23 05:32:50;;;;;;;32.40;20.20;;;;;;;4.71;100.00;97542.86;108881;1256;60214;-77
2023/03/23 05:35:17;;;;;;;26.50;19.10;;;;;;;4.74;100.00;97540.61;108897;1257;74359;-77
2023/03/23 05:37:44;;;;;;;29.30;16.30;;;;;;;4.84;100.00;97540.88;108907;1257;70816;-79
2023/03/23 05:40:11;;;;;;;31.80;18.80;;;;;;;4.93;100.00;97539.98;108867;1257;72898;-78
2023/03/23 05:42:40;;;;;;;33.30;19.80;;;;;;;5.02;100.00;97542.02;108902;1257;59725;-79
2023/03/23 05:45:08;;;;;;;29.80;19.40;;;;;;;5.13;100.00;97542.05;109061;1254;59048;-77
2023/03/23 05:47:35;;;;;;;25.20;18.80;;;;;;;5.22;100.00;97543.09;109159;1254;74472;-78
2023/03/23 05:50:02;;;;;;;30.10;19.30;;;;;;;5.29;100.00;97550.67;109119;1254;70394;-77
2023/03/23 05:52:32;;;;;;;32.10;21.30;;;;;;;5.40;100.00;97556.88;109086;1254;72728;-79
2023/03/23 05:54:59;;;;;;;;;;;;;;;5.52;100.00;97552.71;109033;1256;59943;-77
2023/03/23 05:57:26;;;;;;;35.10;20.30;;;;;;;5.63;100.00;97553.65;108917;1255;59123;-77
2023/03/23 05:59:53;;;;;;;41.70;23.50;;;;;;;5.77;100.00;97560.89;108964;1255;73742;-77
2023/03/23 06:02:19;;;;;;;29.20;20.30;;;;;;;5.92;100.00;97563.35;108900;1256;59098;-79
2023/03/23 06:04:45;;;;;;;29.00;19.00;;;;;;;6.08;100.00;97566.63;108945;1255;59128;-77
2023/03/23 06:07:14;;;;;;;35.40;20.30;;;;;;;6.24;100.00;97564.98;108926;1255;59661;-79
2023/03/23 06:09:41;;;;;;;33.20;21.90;;;;;;;6.39;100.00;97566.45;108971;1255;59707;-77
2023/03/23 06:12:08;;;;;;;32.80;20.10;;;;;;;6.58;100.00;97557.27;108906;1255;74617;-78
2023/03/23 06:14:35;;;;;;;35.10;22.10;;;;;;;6.70;100.00;97550.88;108965;1255;70417;-79
2023/03/23 06:17:02;;;;;;;31.70;22.90;;;;;;;6.82;100.00;97539.00;108972;1255;71655;-79
2023/03/23 06:19:28;;;;;;;52.60;34.90;;;;;;;6.99;100.00;97537.58;108950;1256;59091;-78
2023/03/23 06:21:55;;;;;;;46.00;30.20;;;;;;;7.14;100.00;97544.95;108929;1256;58939;-78
2023/03/23 06:24:21;;;;;;;47.30;26.60;;;;;;;7.27;100.00;97541.73;108951;1255;59374;-79
2023/03/23 06:26:49;;;;;;;44.50;25.60;;;;;;;7.41;100.00;97543.83;108961;1256;58937;-78
2023/03/23 06:29:16;;;;;;;35.50;24.10;;;;;;;7.55;100.00;97539.98;108923;1256;71894;-79
2023/03/23 06:31:45;;;;;;;35.10;24.10;;;;;;;7.69;100.00;97539.54;108841;1256;59568;-77
2023/03/23 06:34:11;;;;;;;38.20;22.80;;;;;;;7.84;100.00;97535.46;108960;1255;60162;-80
2023/03/23 06:36:38;;;;;;;45.70;25.80;;;;;;;8.01;100.00;97533.84;108840;1256;59722;-79
2023/03/23 06:39:04;;;;;;;41.60;23.90;;;;;;;8.19;100.00;97533.63;108861;1255;59652;-77
2023/03/23 06:41:32;;;;;;;36.80;17.70;;;;;;;8.44;100.00;97533.65;108883;1255;59144;-77
2023/03/23 06:43:59;;;;;;;21.10;14.90;;;;;;;8.73;100.00;97534.95;108855;1256;59723;-78
2023/03/23 06:46:26;;;;;;;23.60;13.80;;;;;;;9.15;100.00;97533.01;109091;1254;59792;-79
2023/03/23 06:48:53;;;;;;;18.40;11.40;;;;;;;9.65;100.00;97537.29;108891;1255;73609;-77
2023/03/23 06:51:19;;;;;;;22.90;11.60;;;;;;;10.02;100.00;97534.47;108659;1261;70914;-79
2023/03/23 06:53:46;;;;;;;17.70;10.90;;;;;;;10.32;100.00;97536.48;108696;1256;72890;-77
2023/03/23 06:56:13;;;;;;;22.40;12.10;;;;;;;10.63;100.00;97539.45;108526;1255;59600;-77
2023/03/23 06:58:41;;;;;;;27.70;14.70;;;;;;;10.95;100.00;97541.55;108434;1256;59398;-77
2023/03/23 07:01:09;;;;;;;20.70;14.40;;;;;;;11.28;100.00;97544.80;108845;1255;74714;-77
2023/03/23 07:03:36;;;;;;;19.80;11.70;;;;;;;11.63;100.00;97542.64;108795;1260;70383;-77
2023/03/23 07:06:03;;;;;;;18.80;10.90;;;;;;;11.99;100.00;97548.11;108812;1260;72980;-79
2023/03/23 07:08:30;;;;;;;18.40;11.30;;;;;;;12.34;100.00;97541.47;108871;1256;59080;-77
2023/03/23 07:10:57;;;;;;;11.20;6.30;;;;;;;12.84;100.00;97541.27;108785;1256;59665;-79
2023/03/23 07:13:23;;;;;;;10.10;6.50;;;;;;;13.35;99.84;97542.27;108769;1255;59633;-77
2023/03/23 07:15:50;;;;;;;6.90;4.20;;;;;;;13.88;94.78;97547.05;108859;1255;59059;-79
2023/03/23 07:18:16;;;;;;;7.10;4.70;;;;;;;14.47;94.12;97539.08;108869;1255;72110;-80
2023/03/23 07:20:43;;;;;;;7.90;4.20;;;;;;;15.06;90.00;97538.42;108861;1255;59692;-80
2023/03/23 07:23:09;;;;;;;23.50;8.90;;;;;;;15.38;88.93;97540.64;108682;1256;60697;-78
2023/03/23 07:25:36;;;;;;;9.00;5.20;;;;;;;15.74;85.45;97541.64;108815;1256;59522;-79
2023/03/23 07:28:03;;;;;;;9.90;5.90;;;;;;;15.92;82.32;97532.42;108677;1256;71754;-77
2023/03/23 07:30:29;;;;;;;6.90;4.60;;;;;;;16.06;81.93;97528.92;108692;1256;72573;-80
2023/03/23 07:32:56;;;;;;;7.30;4.10;;;;;;;16.05;78.56;97522.02;108672;1256;59078;-79
2023/03/23 07:35:23;;;;;;;5.00;3.60;;;;;;;15.92;78.66;97523.44;108843;1256;60371;-77
2023/03/23 07:37:51;;;;;;;4.50;3.40;;;;;;;15.86;77.96;97520.15;108685;1256;74544;-77
2023/03/23 07:40:18;;;;;;;6.60;4.50;;;;;;;15.72;79.11;97519.55;108897;1255;72284;-79
2023/03/23 07:42:49;;;;;;;8.70;4.40;;;;;;;15.71;78.88;97518.64;108921;1256;73754;-77
2023/03/23 07:45:15;;;;;;;13.90;9.60;;;;;;;15.66;77.81;97515.15;108762;1256;59621;-80
2023/03/23 07:47:42;;;;;;;10.40;5.80;;;;;;;15.70;78.33;97517.70;108860;1256;59054;-78
2023/03/23 07:50:09;;;;;;;7.10;4.50;;;;;;;15.87;76.19;97522.04;108931;1255;59763;-79
2023/03/23 07:52:36;;;;;;;5.40;4.20;;;;;;;16.39;75.91;97525.23;108753;1256;69996;-80
2023/03/23 07:55:03;;;;;;;6.50;4.10;;;;;;;17.18;74.86;97529.95;108872;1256;71353;-78
2023/03/23 07:57:30;;;;;;;6.90;3.80;;;;;;;17.81;73.61;97527.54;109008;1254;59689;-78
2023/03/23 07:59:59;;;;;;;6.90;4.10;;;;;;;18.35;74.04;97527.17;108942;1256;60562;-78
2023/03/23 08:02:26;;;;;;;4.50;3.30;;;;;;;18.96;67.32;97524.00;108904;1256;73239;-78
2023/03/23 08:04:53;;;;;;;8.10;5.40;;;;;;;19.18;66.40;97523.27;108822;1256;69791;-79
2023/03/23 08:07:19;;;;;;;9.00;4.20;;;;;;;19.37;65.19;97523.73;108890;1255;72537;-80
2023/03/23 08:09:47;;;;;;;5.80;4.40;;;;;;;19.44;61.78;97522.13;108901;1256;59819;-80
2023/03/23 08:12:14;;;;;;;5.90;3.40;;;;;;;19.27;60.61;97521.90;108909;1256;61433;-78
2023/03/23 08:14:41;;;;;;;11.20;3.60;;;;;;;18.97;60.40;97528.44;108896;1255;59667;-80
2023/03/23 08:17:08;;;;;;;6.40;3.50;;;;;;;18.64;61.28;97530.71;108734;1256;72224;-80
2023/03/23 08:19:36;;;;;;;5.90;3.60;;;;;;;18.26;61.48;97538.24;108883;1255;72585;-80
2023/03/23 08:22:03;;;;;;;4.50;2.90;;;;;;;17.89;60.55;97536.05;108883;1256;59079;-78
2023/03/23 08:24:31;;;;;;;6.20;3.60;;;;;;;17.59;61.37;97537.78;108934;1255;59660;-80
2023/03/23 08:26:57;;;;;;;8.60;4.60;;;;;;;17.31;61.75;97539.48;108771;1255;75916;-80
2023/03/23 08:29:24;;;;;;;7.70;4.20;;;;;;;17.07;62.39;97538.86;108915;1256;59716;-79
2023/03/23 08:31:51;;;;;;;6.60;4.00;;;;;;;16.89;62.75;97534.55;108897;1256;72323;-79
2023/03/23 08:34:17;;;;;;;4.20;3.10;;;;;;;16.74;63.06;97532.33;108895;1256;59015;-78
2023/03/23 08:36:46;;;;;;;3.90;3.20;;;;;;;16.66;63.59;97530.02;108836;1256;59646;-79
2023/03/23 08:39:14;;;;;;;4.80;3.10;;;;;;;16.60;63.37;97531.55;108794;1256;74071;-80
2023/03/23 08:41:41;;;;;;;5.10;3.00;;;;;;;16.50;63.18;97529.95;108853;1256;72612;-78
2023/03/23 08:44:08;;;;;;;7.50;3.90;;;;;;;16.50;63.54;97528.80;108833;1256;71395;-79
2023/03/23 08:46:35;;;;;;;7.20;4.40;;;;;;;16.68;63.68;97532.61;108820;1256;59029;-79
2023/03/23 08:49:01;;;;;;;9.70;3.60;;;;;;;16.83;62.74;97530.18;108863;1255;59566;-80
2023/03/23 08:51:28;;;;;;;6.10;3.60;;;;;;;16.91;62.17;97535.73;108870;1256;59136;-79
2023/03/23 08:53:54;;;;;;;5.90;4.00;;;;;;;17.06;62.83;97533.34;108886;1256;59751;-79
2023/03/23 08:56:22;;;;;;;5.80;3.30;;;;;;;17.14;61.38;97534.27;108856;1255;59103;-80
2023/03/23 08:58:48;;;;;;;7.70;3.70;;;;;;;17.32;62.12;97533.42;109022;1257;59294;-78
2023/03/23 09:01:15;;;;;;;7.90;4.10;;;;;;;17.40;61.74;97533.73;109057;1255;58920;-78
2023/03/23 09:03:41;;;;;;;8.20;3.90;;;;;;;17.32;60.37;97536.42;109104;1256;59165;-80
2023/03/23 09:06:08;;;;;;;8.40;4.00;;;;;;;17.20;59.02;97535.33;109079;1256;59709;-80
2023/03/23 09:08:38;;;;;;;9.70;4.70;;;;;;;17.07;60.56;97536.49;109122;1255;72065;-78
2023/03/23 09:11:07;;;;;;;5.30;3.80;;;;;;;17.00;60.26;97530.74;109056;1256;59359;-78
2023/03/23 09:13:34;;;;;;;52.30;47.90;;;;;;;16.91;60.25;97528.13;109007;1256;61160;-78
2023/03/23 09:16:01;;;;;;;20.50;18.70;;;;;;;16.89;60.31;97531.04;109035;1255;73582;-80
2023/03/23 09:18:27;;;;;;;13.00;8.70;;;;;;;16.94;60.07;97531.85;109084;1256;70918;-78
2023/03/23 09:20:54;;;;;;;10.90;6.40;;;;;;;16.95;60.06;97534.95;109047;1256;58944;-78
2023/03/23 09:23:20;;;;;;;9.10;4.70;;;;;;;16.91;61.16;97532.60;109062;1258;58878;-78
2023/03/23 09:25:47;;;;;;;12.90;6.00;;;;;;;16.96;60.68;97531.29;109049;1256;58998;-80
2023/03/23 09:28:13;;;;;;;9.90;4.10;;;;;;;17.04;60.28;97528.17;108782;1255;59606;-77
2023/03/23 09:30:41;;;;;;;7.00;4.20;;;;;;;17.13;60.10;97531.41;108876;1256;59647;-80
2023/03/23 09:33:08;;;;;;;7.10;3.70;;;;;;;17.24;60.77;97526.34;108849;1256;73787;-78
2023/03/23 09:35:35;;;;;;;7.60;3.90;;;;;;;17.30;59.64;97524.52;108843;1255;59724;-78
2023/03/23 09:38:02;;;;;;;8.60;4.10;;;;;;;17.32;59.31;97524.20;108853;1256;59676;-78
2023/03/23 09:40:51;;;;;;;9.80;5.60;;;;;;;17.40;58.46;97518.94;108597;1256;74240;-79
2023/03/23 09:43:18;;;;;;;6.90;3.20;;;;;;;17.42;59.11;97518.23;108720;1254;71730;-78
2023/03/23 09:46:18;;;;;;;4.40;3.10;;;;;;;17.42;59.67;97518.92;108817;1256;59528;-80
2023/03/23 09:48:50;;;;;;;6.30;3.30;;;;;;;17.31;59.72;97519.96;108832;1256;59651;-78
2023/03/23 09:51:38;;;;;;;6.50;4.70;;;;;;;17.20;59.00;97515.77;108851;1256;59158;-80
2023/03/23 09:54:28;;;;;;;8.60;5.90;;;;;;;17.13;58.17;97511.70;108838;1255;74799;-80
2023/03/23 09:56:55;;;;;;;6.20;3.50;;;;;;;17.14;56.55;97516.65;108857;1256;70542;-80
2023/03/23 09:59:26;;;;;;;5.30;3.60;;;;;;;17.21;56.86;97518.63;108865;1255;72714;-77
2023/03/23 10:02:10;;;;;;;11.90;3.00;;;;;;;17.26;54.68;97512.27;108799;1256;59576;-78
2023/03/23 10:04:47;;;;;;;5.90;3.20;;;;;;;17.37;52.92;97510.77;108786;1255;59680;-77
2023/03/23 10:07:17;;;;;;;7.90;4.20;;;;;;;17.42;53.01;97509.66;108782;1256;75818;-78
2023/03/23 10:09:46;;;;;;;6.00;2.80;;;;;;;17.49;51.67;97509.58;108946;1256;70697;-78
2023/03/23 10:12:22;;;;;;;69.80;7.40;;;;;;;17.58;50.91;97511.84;108808;1256;72779;-78
2023/03/23 10:14:51;;;;;;;5.50;3.50;;;;;;;17.75;48.54;97510.48;108748;1257;59691;-80
2023/03/23 10:17:26;;;;;;;9.50;2.40;;;;;;;17.84;46.11;97516.06;108885;1256;60413;-79
2023/03/23 10:20:21;;;;;;;5.70;2.30;;;;;;;17.86;45.73;97515.15;108817;1255;73378;-80
2023/03/23 10:23:00;;;;;;;13.20;2.80;;;;;;;17.89;46.18;97508.80;108886;1256;69993;-78
2023/03/23 10:25:29;;;;;;;8.30;3.40;;;;;;;18.03;44.22;97504.98;108858;1256;71754;-80
2023/03/23 10:28:07;;;;;;;5.10;3.00;;;;;;;18.09;44.29;97498.81;108738;1256;58969;-81
2023/03/23 10:30:36;;;;;;;4.90;3.20;;;;;;;18.20;43.62;97491.91;108877;1255;61764;-80
2023/03/23 10:33:17;;;;;;;6.90;3.60;;;;;;;18.23;43.46;97488.96;108988;1256;73241;-80
2023/03/23 10:36:05;;;;;;;7.10;3.60;;;;;;;18.37;44.00;97480.36;108994;1256;70405;-78
2023/03/23 10:38:38;;;;;;;5.10;2.60;;;;;;;18.43;43.67;97476.04;108974;1254;73329;-78
2023/03/23 10:41:16;;;;;;;7.80;3.00;;;;;;;18.49;43.15;97475.52;108714;1254;59174;-80
2023/03/23 10:43:43;;;;;;;4.60;2.60;;;;;;;18.61;43.00;97465.70;108919;1255;59571;-80
2023/03/23 10:46:29;;;;;;;15.40;4.50;;;;;;;18.81;43.51;97463.98;108910;1256;75052;-78
2023/03/23 10:48:58;;;;;;;11.90;2.80;;;;;;;19.05;42.60;97456.77;108893;1255;71506;-78
2023/03/23 10:51:29;;;;;;;8.00;3.00;;;;;;;19.13;42.55;97454.02;108740;1256;72731;-78
2023/03/23 10:53:57;;;;;;;4.40;3.00;;;;;;;19.14;42.40;97459.40;108887;1255;59278;-78
2023/03/23 10:56:27;;;;;;;5.50;2.90;;;;;;;19.17;42.14;97466.91;108861;1256;59332;-80
2023/03/23 10:58:54;;;;;;;8.00;3.40;;;;;;;19.22;41.64;97465.46;108894;1256;74659;-80
2023/03/23 11:01:32;;;;;;;6.30;3.20;;;;;;;19.24;40.95;97472.20;108858;1256;71321;-78
2023/03/23 11:04:00;;;;;;;4.90;2.40;;;;;;;19.24;39.65;97467.35;108860;1256;70695;-79
2023/03/23 11:06:33;;;;;;;5.60;3.00;;;;;;;19.24;39.79;97471.34;108853;1255;59701;-80
2023/03/23 11:09:03;;;;;;;6.00;3.90;;;;;;;19.26;39.61;97465.19;108927;1256;59657;-78
2023/03/23 11:11:31;;;;;;;4.40;3.20;;;;;;;19.37;40.12;97474.36;108870;1255;75253;-77
2023/03/23 11:14:18;;;;;;;4.20;2.50;;;;;;;19.48;39.21;97476.79;108704;1256;69593;-80
2023/03/23 11:16:55;;;;;;;6.00;3.10;;;;;;;19.60;38.03;97469.91;108749;1256;71938;-78
2023/03/23 11:19:23;;;;;;;8.80;4.20;;;;;;;19.75;38.30;97467.03;108864;1258;59023;-78
2023/03/23 11:22:06;;;;;;;7.30;3.20;;;;;;;19.85;36.35;97464.06;108865;1256;60532;-80
2023/03/23 11:24:34;;;;;;;10.10;4.30;;;;;;;19.87;36.12;97465.77;108769;1256;74328;-80